PKNJT FIMP-WADD
Flight info
| Callsign | PKNJT |
|---|---|
| Flight time | N/A |
| Altitude | 37000 |
| Route | OKROS1A OKROS UT201 KADEM G200 XMX DCT ESLOG DCT PROGO T1 KIDUL |
| Aircraft | A346/H-SDE2E3FGHIJ3J4J5M1RWXY/LB1D1 |
Departure
| Time | N/A |
|---|---|
| Airport | Sir Seewoosagur Ramgoolam International Airport (FIMP) |
Arrival
| Time | 2026-05-06 18:30 |
|---|---|
| Airport | Denpasar I Gusti Ngurah Rai International Airport (WADD) |
| Time | Latitude | Longitude | Altitude | Speed | Heading |
|---|---|---|---|---|---|
| 2026-05-06 17:10 | -10.83783 | 103.70985 | 36900 ft | 500 kts | 78° |
| 2026-05-06 17:11 | -10.82339 | 103.78115 | 36898 ft | 499 kts | 78° |
| 2026-05-06 17:11 | -10.79412 | 103.92523 | 36890 ft | 500 kts | 78° |
| 2026-05-06 17:12 | -10.76367 | 104.07488 | 36907 ft | 500 kts | 78° |
| 2026-05-06 17:12 | -10.73468 | 104.21706 | 36904 ft | 500 kts | 78° |
| 2026-05-06 17:13 | -10.70443 | 104.36506 | 36903 ft | 501 kts | 78° |
| 2026-05-06 17:13 | -10.67604 | 104.50345 | 36903 ft | 500 kts | 78° |
| 2026-05-06 17:14 | -10.64748 | 104.64254 | 36889 ft | 500 kts | 78° |
| 2026-05-06 17:14 | -10.61890 | 104.78137 | 36891 ft | 500 kts | 78° |
| 2026-05-06 17:15 | -10.59018 | 104.92038 | 36902 ft | 500 kts | 78° |
| 2026-05-06 17:15 | -10.56145 | 105.05915 | 36905 ft | 500 kts | 78° |
| 2026-05-06 17:16 | -10.53273 | 105.19767 | 36902 ft | 501 kts | 78° |
| 2026-05-06 17:16 | -10.50385 | 105.33662 | 36909 ft | 501 kts | 78° |
| 2026-05-06 17:17 | -10.47514 | 105.47453 | 36926 ft | 501 kts | 78° |
| 2026-05-06 17:17 | -10.44607 | 105.61384 | 36952 ft | 501 kts | 78° |
| 2026-05-06 17:18 | -10.40447 | 105.74949 | 36950 ft | 501 kts | 66° |
| 2026-05-06 17:18 | -10.34731 | 105.87888 | 36923 ft | 501 kts | 65° |
| 2026-05-06 17:19 | -10.29023 | 106.00861 | 36895 ft | 502 kts | 65° |
| 2026-05-06 17:19 | -10.23322 | 106.13829 | 36890 ft | 501 kts | 65° |
| 2026-05-06 17:20 | -10.17605 | 106.26818 | 36909 ft | 501 kts | 65° |
| 2026-05-06 17:20 | -10.11906 | 106.39754 | 36894 ft | 501 kts | 65° |
| 2026-05-06 17:21 | -10.06222 | 106.52634 | 36887 ft | 501 kts | 65° |
| 2026-05-06 17:21 | -10.00510 | 106.65566 | 36905 ft | 501 kts | 65° |
| 2026-05-06 17:22 | -9.94799 | 106.78479 | 36894 ft | 500 kts | 65° |
| 2026-05-06 17:22 | -9.89054 | 106.91453 | 36900 ft | 502 kts | 65° |
| 2026-05-06 17:23 | -9.83334 | 107.04353 | 36891 ft | 500 kts | 65° |
| 2026-05-06 17:23 | -9.77590 | 107.17292 | 36891 ft | 501 kts | 65° |
| 2026-05-06 17:24 | -9.71847 | 107.30215 | 36909 ft | 501 kts | 65° |
| 2026-05-06 17:24 | -9.66109 | 107.43108 | 36893 ft | 501 kts | 65° |
| 2026-05-06 17:25 | -9.60351 | 107.56035 | 36890 ft | 501 kts | 65° |
| 2026-05-06 17:25 | -9.54597 | 107.68939 | 36893 ft | 500 kts | 65° |
| 2026-05-06 17:26 | -9.48844 | 107.81825 | 36891 ft | 502 kts | 66° |
| 2026-05-06 17:26 | -9.43310 | 107.94856 | 36899 ft | 502 kts | 71° |
| 2026-05-06 17:27 | -9.40248 | 108.08649 | 36897 ft | 500 kts | 83° |
| 2026-05-06 17:27 | -9.38398 | 108.22592 | 36897 ft | 501 kts | 83° |
| 2026-05-06 17:28 | -9.36492 | 108.36577 | 36894 ft | 501 kts | 83° |
| 2026-05-06 17:28 | -9.34563 | 108.50609 | 36894 ft | 501 kts | 83° |
| 2026-05-06 17:29 | -9.32637 | 108.64594 | 36893 ft | 501 kts | 83° |
| 2026-05-06 17:29 | -9.30704 | 108.78578 | 36889 ft | 499 kts | 83° |
| 2026-05-06 17:30 | -9.28769 | 108.92532 | 36898 ft | 500 kts | 83° |
| 2026-05-06 17:30 | -9.26833 | 109.06469 | 36900 ft | 500 kts | 83° |
| 2026-05-06 17:31 | -9.24885 | 109.20429 | 36893 ft | 499 kts | 83° |
| 2026-05-06 17:31 | -9.22952 | 109.34269 | 36896 ft | 498 kts | 83° |
| 2026-05-06 17:32 | -9.20952 | 109.48547 | 36889 ft | 500 kts | 82° |
| 2026-05-06 17:32 | -9.18884 | 109.63230 | 36889 ft | 499 kts | 83° |
| 2026-05-06 17:33 | -9.16914 | 109.77214 | 36891 ft | 498 kts | 82° |
| 2026-05-06 17:33 | -9.14894 | 109.91472 | 36886 ft | 498 kts | 83° |
| 2026-05-06 17:34 | -9.12813 | 110.06126 | 36890 ft | 498 kts | 83° |
| 2026-05-06 17:34 | -9.10754 | 110.20627 | 36884 ft | 498 kts | 83° |
| 2026-05-06 17:35 | -9.08655 | 110.35346 | 36886 ft | 498 kts | 82° |
| 2026-05-06 17:35 | -9.06578 | 110.49861 | 36891 ft | 498 kts | 82° |
| 2026-05-06 17:36 | -9.05058 | 110.60437 | 36890 ft | 497 kts | 82° |
| 2026-05-06 17:36 | -9.04063 | 110.67360 | 36887 ft | 497 kts | 82° |
| 2026-05-06 17:37 | -9.03105 | 110.74282 | 36884 ft | 497 kts | 85° |
| 2026-05-06 17:37 | -9.02718 | 110.81262 | 36890 ft | 496 kts | 91° |
| 2026-05-06 17:38 | -9.02745 | 110.88241 | 36886 ft | 495 kts | 91° |
| 2026-05-06 17:38 | -9.02787 | 110.95222 | 36885 ft | 495 kts | 91° |
| 2026-05-06 17:39 | -9.02822 | 111.02199 | 36889 ft | 495 kts | 91° |
| 2026-05-06 17:39 | -9.02850 | 111.09183 | 36887 ft | 495 kts | 91° |
| 2026-05-06 17:40 | -9.02875 | 111.16113 | 36891 ft | 495 kts | 91° |
| 2026-05-06 17:40 | -9.02899 | 111.23099 | 36888 ft | 496 kts | 91° |
| 2026-05-06 17:41 | -9.02920 | 111.30083 | 36888 ft | 496 kts | 91° |
| 2026-05-06 17:41 | -9.02940 | 111.37067 | 36886 ft | 496 kts | 91° |
| 2026-05-06 17:42 | -9.02959 | 111.44047 | 36886 ft | 495 kts | 91° |
| 2026-05-06 17:42 | -9.02978 | 111.51035 | 36889 ft | 495 kts | 91° |
| 2026-05-06 17:43 | -9.02995 | 111.58021 | 36889 ft | 495 kts | 91° |
| 2026-05-06 17:43 | -9.03010 | 111.65001 | 36891 ft | 495 kts | 91° |
| 2026-05-06 17:44 | -9.03024 | 111.71984 | 36893 ft | 495 kts | 91° |
| 2026-05-06 17:44 | -9.03036 | 111.78929 | 36894 ft | 496 kts | 91° |
| 2026-05-06 17:45 | -9.03048 | 111.85900 | 36889 ft | 496 kts | 91° |
| 2026-05-06 17:45 | -9.03058 | 111.92889 | 36887 ft | 496 kts | 91° |
| 2026-05-06 17:46 | -9.03067 | 111.99870 | 36889 ft | 495 kts | 91° |
| 2026-05-06 17:46 | -9.03075 | 112.06856 | 36887 ft | 495 kts | 91° |
| 2026-05-06 17:47 | -9.03081 | 112.13840 | 36891 ft | 495 kts | 91° |
| 2026-05-06 17:47 | -9.03086 | 112.20823 | 36890 ft | 496 kts | 91° |
| 2026-05-06 17:48 | -9.03089 | 112.27802 | 36889 ft | 496 kts | 91° |
| 2026-05-06 17:48 | -9.03091 | 112.34748 | 36890 ft | 496 kts | 91° |
| 2026-05-06 17:49 | -9.03092 | 112.41737 | 36890 ft | 496 kts | 91° |
| 2026-05-06 17:49 | -9.03093 | 112.48728 | 36889 ft | 496 kts | 91° |
| 2026-05-06 17:50 | -9.03092 | 112.55716 | 36889 ft | 496 kts | 91° |
| 2026-05-06 17:50 | -9.03090 | 112.62714 | 36888 ft | 496 kts | 91° |
| 2026-05-06 17:51 | -9.03084 | 112.69721 | 36888 ft | 496 kts | 90° |
| 2026-05-06 17:51 | -9.03008 | 112.76723 | 36888 ft | 496 kts | 90° |
| 2026-05-06 17:52 | -9.02914 | 112.83694 | 36890 ft | 497 kts | 90° |
| 2026-05-06 17:52 | -9.02837 | 112.89559 | 36887 ft | 497 kts | 90° |
| 2026-05-06 17:53 | -9.02733 | 112.97725 | 36889 ft | 497 kts | 90° |
| 2026-05-06 17:53 | -9.02644 | 113.04720 | 36890 ft | 497 kts | 90° |
| 2026-05-06 17:54 | -9.02569 | 113.10553 | 36887 ft | 497 kts | 90° |
| 2026-05-06 17:54 | -9.02479 | 113.17578 | 36885 ft | 497 kts | 90° |
| 2026-05-06 17:55 | -9.02379 | 113.24571 | 36273 ft | 500 kts | 89° |
| 2026-05-06 17:55 | -9.02325 | 113.28120 | 35531 ft | 509 kts | 90° |
| 2026-05-06 17:55 | -9.02272 | 113.31735 | 34976 ft | 513 kts | 90° |
| 2026-05-06 17:56 | -9.02222 | 113.35348 | 34569 ft | 513 kts | 90° |
| 2026-05-06 17:56 | -9.02172 | 113.38966 | 34179 ft | 514 kts | 90° |
| 2026-05-06 17:56 | -9.02122 | 113.42599 | 33762 ft | 515 kts | 90° |
| 2026-05-06 17:56 | -9.02072 | 113.46223 | 33273 ft | 516 kts | 90° |
| 2026-05-06 17:57 | -9.02021 | 113.49869 | 32785 ft | 517 kts | 90° |
| 2026-05-06 17:57 | -9.01970 | 113.53516 | 32319 ft | 518 kts | 90° |
| 2026-05-06 17:57 | -9.01918 | 113.57164 | 31876 ft | 518 kts | 90° |
| 2026-05-06 17:57 | -9.01867 | 113.60818 | 31430 ft | 518 kts | 90° |
| 2026-05-06 17:58 | -9.01815 | 113.64482 | 30983 ft | 519 kts | 90° |
| 2026-05-06 17:58 | -9.01762 | 113.68175 | 30519 ft | 519 kts | 90° |
| 2026-05-06 17:58 | -9.01710 | 113.71840 | 30076 ft | 520 kts | 90° |
| 2026-05-06 17:58 | -9.01657 | 113.75505 | 29554 ft | 521 kts | 90° |
| 2026-05-06 17:59 | -9.01605 | 113.79181 | 28983 ft | 522 kts | 90° |
| 2026-05-06 17:59 | -9.01552 | 113.82852 | 28459 ft | 522 kts | 90° |
| 2026-05-06 17:59 | -9.01499 | 113.86526 | 28053 ft | 520 kts | 90° |
| 2026-05-06 17:59 | -9.01445 | 113.90172 | 27683 ft | 517 kts | 90° |
| 2026-05-06 18:00 | -9.01390 | 113.93808 | 27313 ft | 514 kts | 90° |
| 2026-05-06 18:00 | -9.01336 | 113.97419 | 26963 ft | 511 kts | 90° |
| 2026-05-06 18:00 | -9.01284 | 114.00998 | 26693 ft | 507 kts | 90° |
| 2026-05-06 18:00 | -9.01232 | 114.04550 | 26401 ft | 503 kts | 90° |
| 2026-05-06 18:01 | -9.01180 | 114.08045 | 26083 ft | 500 kts | 90° |
| 2026-05-06 18:01 | -9.01127 | 114.11565 | 25726 ft | 498 kts | 90° |
| 2026-05-06 18:01 | -9.01075 | 114.15067 | 25407 ft | 496 kts | 90° |
| 2026-05-06 18:01 | -9.01021 | 114.18553 | 25069 ft | 494 kts | 90° |
| 2026-05-06 18:02 | -9.00869 | 114.22027 | 24735 ft | 493 kts | 84° |
| 2026-05-06 18:02 | -9.00198 | 114.25421 | 24408 ft | 491 kts | 74° |
| 2026-05-06 18:02 | -8.99103 | 114.28698 | 24135 ft | 487 kts | 70° |
| 2026-05-06 18:02 | -8.97933 | 114.31911 | 23837 ft | 485 kts | 69° |
| 2026-05-06 18:03 | -8.96754 | 114.35097 | 23633 ft | 480 kts | 69° |
| 2026-05-06 18:03 | -8.95594 | 114.38254 | 23434 ft | 476 kts | 69° |
| 2026-05-06 18:03 | -8.94454 | 114.41384 | 23206 ft | 471 kts | 69° |
| 2026-05-06 18:03 | -8.93333 | 114.44481 | 22995 ft | 466 kts | 70° |
| 2026-05-06 18:04 | -8.92226 | 114.47553 | 22776 ft | 462 kts | 70° |
| 2026-05-06 18:04 | -8.91132 | 114.50595 | 22584 ft | 457 kts | 70° |
| 2026-05-06 18:04 | -8.90049 | 114.53611 | 22382 ft | 453 kts | 70° |
| 2026-05-06 18:04 | -8.88974 | 114.56603 | 22101 ft | 449 kts | 70° |
| 2026-05-06 18:05 | -8.87911 | 114.59561 | 21851 ft | 444 kts | 70° |
| 2026-05-06 18:05 | -8.86859 | 114.62488 | 21609 ft | 439 kts | 70° |
| 2026-05-06 18:05 | -8.85835 | 114.65336 | 21369 ft | 435 kts | 70° |
| 2026-05-06 18:05 | -8.84803 | 114.68205 | 21145 ft | 430 kts | 70° |
| 2026-05-06 18:06 | -8.83705 | 114.71001 | 20918 ft | 426 kts | 68° |
| 2026-05-06 18:06 | -8.82576 | 114.73755 | 20704 ft | 421 kts | 68° |
| 2026-05-06 18:06 | -8.81454 | 114.76479 | 20502 ft | 417 kts | 68° |
| 2026-05-06 18:06 | -8.80352 | 114.79162 | 20301 ft | 412 kts | 68° |
| 2026-05-06 18:07 | -8.79255 | 114.81833 | 20111 ft | 408 kts | 68° |
| 2026-05-06 18:07 | -8.78175 | 114.84473 | 19926 ft | 404 kts | 69° |
| 2026-05-06 18:07 | -8.77104 | 114.87088 | 19757 ft | 399 kts | 69° |
| 2026-05-06 18:07 | -8.76050 | 114.89676 | 19578 ft | 395 kts | 71° |
| 2026-05-06 18:08 | -8.75429 | 114.92344 | 19377 ft | 388 kts | 89° |
| 2026-05-06 18:08 | -8.75423 | 114.95063 | 19229 ft | 382 kts | 93° |
| 2026-05-06 18:08 | -8.75472 | 114.97739 | 19076 ft | 379 kts | 92° |
| 2026-05-06 18:08 | -8.75487 | 115.00386 | 18922 ft | 375 kts | 90° |
| 2026-05-06 18:09 | -8.75408 | 115.03008 | 18790 ft | 371 kts | 89° |
| 2026-05-06 18:09 | -8.75293 | 115.05611 | 18657 ft | 368 kts | 90° |
| 2026-05-06 18:09 | -8.75181 | 115.08199 | 18524 ft | 364 kts | 89° |
| 2026-05-06 18:09 | -8.75079 | 115.10751 | 18398 ft | 360 kts | 90° |
| 2026-05-06 18:10 | -8.74979 | 115.13274 | 18276 ft | 356 kts | 90° |
| 2026-05-06 18:10 | -8.74886 | 115.15730 | 18156 ft | 353 kts | 90° |
| 2026-05-06 18:10 | -8.74789 | 115.18195 | 18030 ft | 349 kts | 90° |
| 2026-05-06 18:10 | -8.74688 | 115.20645 | 17900 ft | 346 kts | 90° |
| 2026-05-06 18:11 | -8.74583 | 115.23070 | 17772 ft | 343 kts | 90° |
| 2026-05-06 18:11 | -8.74486 | 115.25474 | 17643 ft | 340 kts | 90° |
| 2026-05-06 18:11 | -8.74388 | 115.27849 | 17516 ft | 337 kts | 89° |
| 2026-05-06 18:11 | -8.74287 | 115.30217 | 17389 ft | 334 kts | 90° |
| 2026-05-06 18:12 | -8.74192 | 115.32554 | 17260 ft | 332 kts | 90° |
| 2026-05-06 18:12 | -8.74095 | 115.34883 | 17142 ft | 329 kts | 90° |
| 2026-05-06 18:12 | -8.73997 | 115.37192 | 17016 ft | 327 kts | 90° |
| 2026-05-06 18:12 | -8.73907 | 115.39479 | 16892 ft | 325 kts | 90° |
| 2026-05-06 18:13 | -8.73815 | 115.41758 | 16764 ft | 323 kts | 90° |
| 2026-05-06 18:13 | -8.73719 | 115.44024 | 16640 ft | 321 kts | 90° |
| 2026-05-06 18:13 | -8.73634 | 115.46277 | 16510 ft | 319 kts | 90° |
| 2026-05-06 18:13 | -8.73551 | 115.48512 | 16395 ft | 317 kts | 90° |
| 2026-05-06 18:14 | -8.73464 | 115.50737 | 16272 ft | 315 kts | 90° |
| 2026-05-06 18:14 | -8.73384 | 115.52951 | 16144 ft | 314 kts | 89° |
| 2026-05-06 18:14 | -8.73308 | 115.55155 | 16025 ft | 312 kts | 90° |
| 2026-05-06 18:14 | -8.73226 | 115.57343 | 15897 ft | 310 kts | 89° |
| 2026-05-06 18:15 | -8.73150 | 115.59522 | 15786 ft | 309 kts | 90° |
| 2026-05-06 18:15 | -8.73080 | 115.61692 | 15676 ft | 308 kts | 89° |
| 2026-05-06 18:15 | -8.73008 | 115.63850 | 15542 ft | 307 kts | 89° |
| 2026-05-06 18:15 | -8.72938 | 115.66000 | 15434 ft | 305 kts | 89° |
| 2026-05-06 18:16 | -8.72877 | 115.68117 | 15308 ft | 304 kts | 90° |
| 2026-05-06 18:16 | -8.72815 | 115.70252 | 15190 ft | 303 kts | 90° |
| 2026-05-06 18:16 | -8.72755 | 115.72386 | 15070 ft | 302 kts | 89° |
| 2026-05-06 18:16 | -8.72699 | 115.74519 | 14956 ft | 301 kts | 90° |
| 2026-05-06 18:17 | -8.72645 | 115.76639 | 14837 ft | 301 kts | 90° |
| 2026-05-06 18:17 | -8.72591 | 115.78751 | 14722 ft | 300 kts | 90° |
| 2026-05-06 18:17 | -8.72540 | 115.80857 | 14607 ft | 299 kts | 90° |
| 2026-05-06 18:17 | -8.72493 | 115.82963 | 14492 ft | 298 kts | 90° |
| 2026-05-06 18:18 | -8.72446 | 115.85062 | 14380 ft | 298 kts | 89° |
| 2026-05-06 18:18 | -8.72403 | 115.87128 | 14268 ft | 297 kts | 89° |
| 2026-05-06 18:18 | -8.72364 | 115.89214 | 14154 ft | 297 kts | 89° |
| 2026-05-06 18:18 | -8.72325 | 115.91330 | 14040 ft | 296 kts | 90° |
| 2026-05-06 18:19 | -8.72288 | 115.93408 | 13927 ft | 296 kts | 89° |
| 2026-05-06 18:19 | -8.72255 | 115.95458 | 13819 ft | 295 kts | 89° |
| 2026-05-06 18:19 | -8.72226 | 115.97540 | 13718 ft | 295 kts | 89° |
| 2026-05-06 18:19 | -8.72200 | 115.99619 | 13599 ft | 296 kts | 90° |
| 2026-05-06 18:20 | -8.72207 | 116.01707 | 13474 ft | 297 kts | 97° |
| 2026-05-06 18:20 | -8.72824 | 116.03691 | 13315 ft | 297 kts | 123° |
| 2026-05-06 18:20 | -8.74223 | 116.05202 | 13201 ft | 297 kts | 148° |
| 2026-05-06 18:20 | -8.76129 | 116.05951 | 13085 ft | 296 kts | 174° |
| 2026-05-06 18:21 | -8.78185 | 116.05908 | 12969 ft | 296 kts | 187° |
| 2026-05-06 18:21 | -8.80223 | 116.05602 | 12841 ft | 297 kts | 190° |
| 2026-05-06 18:21 | -8.82269 | 116.05241 | 12730 ft | 299 kts | 191° |
| 2026-05-06 18:21 | -8.84318 | 116.04867 | 12590 ft | 300 kts | 191° |
| 2026-05-06 18:22 | -8.86377 | 116.04485 | 12472 ft | 301 kts | 191° |
| 2026-05-06 18:22 | -8.88364 | 116.03818 | 12240 ft | 306 kts | 211° |
| 2026-05-06 18:22 | -8.89947 | 116.02368 | 11896 ft | 314 kts | 236° |
| 2026-05-06 18:22 | -8.90826 | 116.00329 | 11563 ft | 322 kts | 258° |
| 2026-05-06 18:23 | -8.91168 | 115.98056 | 11241 ft | 331 kts | 264° |
| 2026-05-06 18:23 | -8.91396 | 115.95712 | 10908 ft | 338 kts | 265° |
| 2026-05-06 18:23 | -8.91604 | 115.93310 | 10577 ft | 346 kts | 265° |
| 2026-05-06 18:23 | -8.92057 | 115.87917 | 9883 ft | 359 kts | 266° |
| 2026-05-06 18:24 | -8.92527 | 115.82190 | 9115 ft | 371 kts | 266° |
| 2026-05-06 18:24 | -8.92999 | 115.76335 | 8336 ft | 382 kts | 265° |
| 2026-05-06 18:24 | -8.93463 | 115.70388 | 7606 ft | 390 kts | 266° |
| 2026-05-06 18:24 | -8.93920 | 115.64439 | 7077 ft | 390 kts | 265° |
| 2026-05-06 18:25 | -8.94497 | 115.56876 | 6668 ft | 383 kts | 266° |
| 2026-05-06 18:25 | -8.95480 | 115.44056 | 5810 ft | 381 kts | 265° |
| 2026-05-06 18:25 | -8.96430 | 115.31719 | 5193 ft | 379 kts | 265° |
| 2026-05-06 18:25 | -8.97346 | 115.18968 | 4732 ft | 374 kts | 265° |
| 2026-05-06 18:26 | -8.98204 | 115.06964 | 4265 ft | 372 kts | 266° |
| 2026-05-06 18:26 | -8.98330 | 114.95004 | 3597 ft | 373 kts | 297° |
| 2026-05-06 18:26 | -8.87570 | 114.93331 | 2966 ft | 347 kts | 46° |
| 2026-05-06 18:26 | -8.86005 | 114.95530 | 2960 ft | 336 kts | 67° |
| 2026-05-06 18:27 | -8.85004 | 114.97652 | 2555 ft | 334 kts | 62° |
| 2026-05-06 18:27 | -8.83691 | 114.99534 | 2550 ft | 321 kts | 53° |
| 2026-05-06 18:27 | -8.82236 | 115.01176 | 2588 ft | 303 kts | 51° |
| 2026-05-06 18:27 | -8.80856 | 115.02674 | 2543 ft | 280 kts | 51° |
| 2026-05-06 18:28 | -8.79546 | 115.04075 | 2243 ft | 269 kts | 51° |
| 2026-05-06 18:28 | -8.78282 | 115.05406 | 1875 ft | 253 kts | 50° |
| 2026-05-06 18:28 | -8.77114 | 115.06636 | 1582 ft | 234 kts | 51° |
| 2026-05-06 18:28 | -8.76095 | 115.07851 | 1258 ft | 218 kts | 59° |
| 2026-05-06 18:29 | -8.75398 | 115.09105 | 1184 ft | 192 kts | 72° |
| 2026-05-06 18:29 | -8.75056 | 115.10390 | 1139 ft | 187 kts | 85° |
| 2026-05-06 18:29 | -8.75046 | 115.11685 | 855 ft | 183 kts | 90° |
| 2026-05-06 18:29 | -8.74974 | 115.12971 | 469 ft | 181 kts | 90° |
| 2026-05-06 18:30 | -8.74947 | 115.14203 | 205 ft | 169 kts | 91° |
| 2026-05-06 18:30 | -8.74887 | 115.15345 | 40 ft | 153 kts | 92° |
| 2026-05-06 18:30 | -8.74871 | 115.16199 | 37 ft | 98 kts | 88° |
| 2026-05-06 18:30 | -8.74845 | 115.16681 | 36 ft | 46 kts | 87° |
| 2026-05-06 18:31 | -8.74834 | 115.16995 | 37 ft | 44 kts | 88° |
| 2026-05-06 18:31 | -8.74812 | 115.17277 | 34 ft | 26 kts | 67° |
| 2026-05-06 18:31 | -8.74682 | 115.17298 | 40 ft | 14 kts | 321° |
| 2026-05-06 18:31 | -8.74651 | 115.17198 | 41 ft | 16 kts | 272° |
| 2026-05-06 18:32 | -8.74648 | 115.17070 | 40 ft | 18 kts | 268° |
| 2026-05-06 18:32 | -8.74649 | 115.17048 | 40 ft | 2 kts | 268° |
| 2026-05-06 18:32 | -8.74650 | 115.17024 | 40 ft | 5 kts | 266° |
| 2026-05-06 18:32 | -8.74653 | 115.16975 | 40 ft | 9 kts | 266° |
| 2026-05-06 18:33 | -8.74656 | 115.16928 | 40 ft | 0 kts | 269° |
| 2026-05-06 18:33 | -8.74656 | 115.16909 | 40 ft | 5 kts | 274° |
| 2026-05-06 18:33 | -8.74622 | 115.16878 | 41 ft | 8 kts | 347° |
| 2026-05-06 18:33 | -8.74588 | 115.16872 | 41 ft | 4 kts | 353° |
| 2026-05-06 18:34 | -8.74579 | 115.16871 | 41 ft | 2 kts | 354° |
| 2026-05-06 18:34 | -8.74558 | 115.16869 | 41 ft | 3 kts | 356° |
| 2026-05-06 18:34 | -8.74551 | 115.16868 | 41 ft | 0 kts | 357° |
| 2026-05-06 18:34 | -8.74548 | 115.16868 | 41 ft | 0 kts | 357° |